Time;durP1;ratioP1;P1;durP2;ratioP2;P2;SDS_P1;SDS_P2;PMS_P1;PMS_P2;Temp;Humidity;BMP_temperature;BMP_pressure;BME280_temperature;BME280_humidity;BME280_pressure;Samples;Min_cycle;Max_cycle;Signal;HPM_P1;HPM_P2
2023/10/19 00:02:07;;;;;;;40.47;26.15;;;7.80;99.90;;;;;;4995831;28;20665;-76
2023/10/19 00:04:37;;;;;;;33.20;24.33;;;7.80;99.90;;;;;;5014579;28;20050;-77
2023/10/19 00:07:07;;;;;;;33.25;25.38;;;7.70;99.90;;;;;;5007767;28;20511;-77
2023/10/19 00:09:37;;;;;;;38.40;25.23;;;7.70;99.90;;;;;;4998429;28;20116;-77
2023/10/19 00:12:09;;;;;;;35.60;26.35;;;7.80;99.90;;;;;;4990767;28;20046;-77
2023/10/19 00:14:36;;;;;;;42.42;27.75;;;7.70;99.90;;;;;;5004604;28;20057;-77
2023/10/19 00:17:10;;;;;;;39.25;27.60;;;7.70;99.90;;;;;;4996355;28;20115;-77
2023/10/19 00:19:55;;;;;;;42.03;27.25;;;7.70;99.90;;;;;;4994987;28;20049;-77
2023/10/19 00:22:24;;;;;;;32.17;23.40;;;7.70;99.90;;;;;;4992319;28;20054;-77
2023/10/19 00:24:51;;;;;;;38.33;27.65;;;7.70;99.90;;;;;;5001591;28;20045;-78
2023/10/19 00:27:19;;;;;;;40.08;27.13;;;7.70;99.90;;;;;;5002089;28;20049;-78
2023/10/19 00:29:49;;;;;;;37.80;27.92;;;7.70;99.90;;;;;;4979142;28;20210;-77
2023/10/19 00:32:17;;;;;;;42.28;27.95;;;7.70;99.90;;;;;;4995932;28;20049;-76
2023/10/19 00:34:51;;;;;;;37.58;24.90;;;7.70;99.90;;;;;;4985867;28;20056;-77
2023/10/19 00:37:25;;;;;;;43.25;26.35;;;7.70;99.90;;;;;;4998104;28;20058;-78
2023/10/19 00:39:54;;;;;;;38.42;26.73;;;7.70;99.90;;;;;;5002067;28;20645;-78
2023/10/19 00:42:25;;;;;;;44.90;28.48;;;7.70;99.90;;;;;;4989012;28;20046;-77
2023/10/19 00:45:01;;;;;;;45.38;29.20;;;7.60;99.90;;;;;;5022898;28;20042;-78
2023/10/19 00:47:33;;;;;;;;;;;7.60;99.90;;;;;;4977060;28;20053;-77
2023/10/19 00:50:05;;;;;;;43.55;27.95;;;7.60;99.90;;;;;;5007970;28;19928;-78
2023/10/19 00:52:37;;;;;;;47.58;30.92;;;7.60;99.90;;;;;;5000771;28;20078;-77
2023/10/19 00:55:07;;;;;;;;;;;7.60;99.90;;;;;;4995800;28;20149;-77
2023/10/19 00:57:37;;;;;;;45.60;27.25;;;7.60;99.90;;;;;;4996764;28;19925;-77
2023/10/19 01:00:21;;;;;;;45.33;26.45;;;7.60;99.90;;;;;;5007041;28;20528;-77
2023/10/19 01:02:51;;;;;;;52.97;28.60;;;7.60;99.90;;;;;;4998043;28;20050;-77
2023/10/19 01:05:21;;;;;;;50.25;30.80;;;7.60;99.90;;;;;;4998954;28;20071;-75
2023/10/19 01:07:56;;;;;;;44.70;29.88;;;7.50;99.90;;;;;;5006853;28;20051;-76
2023/10/19 01:10:23;;;;;;;39.75;27.10;;;7.50;99.90;;;;;;5009540;28;20251;-76
2023/10/19 01:12:51;;;;;;;51.00;30.95;;;7.50;99.90;;;;;;5015762;28;20045;-76
2023/10/19 01:15:29;;;;;;;52.28;32.70;;;7.50;99.90;;;;;;5007736;28;20041;-76
2023/10/19 01:17:58;;;;;;;56.63;32.25;;;7.50;99.90;;;;;;5015782;28;20116;-77
2023/10/19 01:28:25;;;;;;;50.92;32.70;;;7.50;99.90;;;;;;5006747;28;20116;-78
2023/10/19 01:30:52;;;;;;;50.83;31.33;;;7.50;99.90;;;;;;4992222;28;20113;-78
2023/10/19 01:33:19;;;;;;;55.80;32.63;;;7.60;99.90;;;;;;4989034;28;20049;-76
2023/10/19 01:38:33;;;;;;;50.22;32.25;;;7.50;99.90;;;;;;5001974;28;20042;-75
2023/10/19 01:41:13;;;;;;;46.15;28.52;;;7.60;99.90;;;;;;4986514;28;20043;-75
2023/10/19 01:43:42;;;;;;;50.60;30.92;;;7.50;99.90;;;;;;4997865;28;21052;-79
2023/10/19 01:46:21;;;;;;;51.17;30.05;;;7.60;99.90;;;;;;4997642;28;20497;-74
2023/10/19 01:48:53;;;;;;;49.03;29.17;;;7.60;99.90;;;;;;4998666;28;20073;-75
2023/10/19 01:51:26;;;;;;;45.03;29.25;;;7.60;99.90;;;;;;4998936;28;20419;-75
2023/10/19 01:53:55;;;;;;;45.28;27.92;;;7.60;99.90;;;;;;4986753;28;20064;-75
2023/10/19 01:56:23;;;;;;;37.70;27.60;;;7.60;99.90;;;;;;4991911;28;20038;-78
2023/10/19 01:58:58;;;;;;;35.75;24.20;;;7.60;99.90;;;;;;4981879;28;20134;-76
2023/10/19 02:04:00;;;;;;;26.90;19.98;;;7.70;99.90;;;;;;5001852;28;20037;-76
2023/10/19 02:06:37;;;;;;;30.50;22.30;;;7.60;99.90;;;;;;4997569;28;20705;-78
2023/10/19 02:09:17;;;;;;;29.00;22.10;;;7.70;99.90;;;;;;4981816;28;20048;-77
2023/10/19 02:11:46;;;;;;;34.40;23.13;;;7.60;99.90;;;;;;4995665;28;20544;-76
2023/10/19 02:14:18;;;;;;;30.63;21.63;;;7.60;99.90;;;;;;4998574;28;20737;-76
2023/10/19 02:16:51;;;;;;;33.70;23.65;;;7.60;99.90;;;;;;5000151;28;20046;-75
2023/10/19 02:19:20;;;;;;;32.58;22.83;;;7.70;99.90;;;;;;4998588;28;20056;-75
2023/10/19 02:21:59;;;;;;;37.95;24.73;;;7.70;99.90;;;;;;4987975;28;20534;-75
2023/10/19 02:24:26;;;;;;;37.90;23.85;;;7.70;99.90;;;;;;5002129;28;20042;-76
2023/10/19 02:26:57;;;;;;;31.67;22.25;;;7.80;99.90;;;;;;4997985;28;20045;-75
2023/10/19 02:29:27;;;;;;;26.20;18.67;;;7.80;99.90;;;;;;4992974;28;20132;-75
2023/10/19 02:31:56;;;;;;;24.60;18.27;;;7.80;99.90;;;;;;5006221;28;20040;-77
2023/10/19 02:34:23;;;;;;;26.52;19.58;;;7.70;99.90;;;;;;5007078;28;20396;-77
2023/10/19 02:36:50;;;;;;;21.10;17.38;;;7.70;99.90;;;;;;5001283;28;20045;-77
2023/10/19 02:39:17;;;;;;;31.67;21.40;;;7.80;99.90;;;;;;4999895;28;20049;-77
2023/10/19 02:41:47;;;;;;;28.70;20.17;;;7.90;99.90;;;;;;4997661;28;20618;-77
2023/10/19 02:44:22;;;;;;;34.88;22.40;;;7.90;99.90;;;;;;4999006;28;20041;-78
2023/10/19 02:46:58;;;;;;;38.85;24.15;;;8.00;99.90;;;;;;4999736;28;20038;-79
2023/10/19 02:49:27;;;;;;;37.03;23.75;;;8.00;99.90;;;;;;5000348;28;20053;-79
2023/10/19 02:51:54;;;;;;;39.53;27.38;;;8.00;99.90;;;;;;5009888;28;20669;-80
2023/10/19 02:54:24;;;;;;;48.22;27.20;;;8.20;99.90;;;;;;5005156;28;20101;-78
2023/10/19 02:56:53;;;;;;;46.70;29.02;;;8.20;99.90;;;;;;4998675;28;20100;-78
2023/10/19 02:59:22;;;;;;;51.85;31.55;;;8.20;99.90;;;;;;5009767;28;20107;-78
2023/10/19 03:02:00;;;;;;;57.45;32.67;;;8.30;99.90;;;;;;4996453;28;20053;-78
2023/10/19 03:04:28;;;;;;;51.47;31.48;;;8.20;99.90;;;;;;4999813;28;20049;-79
2023/10/19 03:06:56;;;;;;;59.75;33.97;;;8.30;99.90;;;;;;5007141;28;20515;-78
2023/10/19 03:09:28;;;;;;;61.33;34.60;;;8.30;99.90;;;;;;4990535;28;20515;-79
2023/10/19 03:11:59;;;;;;;54.58;32.83;;;8.30;99.90;;;;;;4974521;28;20229;-77
2023/10/19 03:14:27;;;;;;;55.90;31.13;;;8.20;99.90;;;;;;4999951;28;20104;-79
2023/10/19 03:16:55;;;;;;;55.90;33.08;;;8.30;99.90;;;;;;4990653;28;20056;-77
2023/10/19 03:19:24;;;;;;;55.20;30.85;;;8.30;99.90;;;;;;5002650;28;20046;-79
2023/10/19 03:21:53;;;;;;;60.33;33.60;;;8.30;99.90;;;;;;5005192;28;20057;-77
2023/10/19 03:27:27;;;;;;;;;;;8.30;99.90;;;;;;5000191;28;20123;-77
2023/10/19 03:29:55;;;;;;;46.22;28.90;;;8.30;99.90;;;;;;5004080;28;19933;-76
2023/10/19 03:32:28;;;;;;;49.95;28.67;;;8.40;99.90;;;;;;5000256;28;20656;-77
2023/10/19 03:34:55;;;;;;;48.15;28.55;;;8.30;99.90;;;;;;5003218;28;20097;-77
2023/10/19 03:37:25;;;;;;;50.53;29.05;;;8.40;99.90;;;;;;5005023;28;20068;-77
2023/10/19 03:39:55;;;;;;;52.53;31.10;;;8.50;99.90;;;;;;5015141;28;20192;-77
2023/10/19 03:42:26;;;;;;;52.10;30.23;;;8.50;99.90;;;;;;5000773;28;20373;-79
2023/10/19 03:44:53;;;;;;;50.00;29.65;;;8.50;99.90;;;;;;5013388;28;20100;-79
2023/10/19 03:47:26;;;;;;;55.08;31.02;;;8.50;99.90;;;;;;5007327;28;20048;-79
2023/10/19 03:49:53;;;;;;;52.95;30.25;;;8.50;99.90;;;;;;5002452;28;20924;-79
2023/10/19 03:52:20;;;;;;;57.63;31.65;;;8.60;99.90;;;;;;4988577;28;20651;-79
2023/10/19 03:54:49;;;;;;;49.47;28.20;;;8.60;99.90;;;;;;4988903;28;21485;-78
2023/10/19 03:57:22;;;;;;;53.50;31.35;;;8.50;99.90;;;;;;5011685;28;20052;-78
2023/10/19 03:59:56;;;;;;;48.47;30.17;;;8.50;99.90;;;;;;5003195;28;21552;-79
2023/10/19 04:02:35;;;;;;;51.88;30.70;;;8.40;99.90;;;;;;5002093;28;20052;-78
2023/10/19 04:05:03;;;;;;;58.53;30.05;;;8.50;99.90;;;;;;5011908;28;20056;-79
2023/10/19 04:07:33;;;;;;;55.67;32.75;;;8.50;99.90;;;;;;5005061;28;20041;-80
2023/10/19 04:12:42;;;;;;;61.63;33.42;;;8.60;99.90;;;;;;5005453;28;20052;-78
2023/10/19 04:15:12;;;;;;;53.38;29.88;;;8.70;99.90;;;;;;4999838;28;20045;-78
2023/10/19 04:17:40;;;;;;;50.55;30.85;;;8.70;99.90;;;;;;4990607;28;20041;-78
2023/10/19 04:22:49;;;;;;;48.88;30.02;;;8.70;99.90;;;;;;5012259;28;20045;-79
2023/10/19 04:25:25;;;;;;;44.45;29.17;;;8.80;99.90;;;;;;5007127;28;20094;-78
2023/10/19 04:27:51;;;;;;;42.63;28.92;;;8.80;99.90;;;;;;5000513;28;21365;-78
2023/10/19 04:30:27;;;;;;;47.83;28.88;;;8.90;99.90;;;;;;5002469;28;20508;-78
2023/10/19 04:32:57;;;;;;;43.95;29.58;;;8.90;99.90;;;;;;5006197;28;20055;-78
2023/10/19 04:35:29;;;;;;;40.55;28.88;;;8.90;99.90;;;;;;5009092;28;20080;-80
2023/10/19 04:37:56;;;;;;;50.42;30.17;;;8.90;99.90;;;;;;5000934;28;20144;-79
2023/10/19 04:40:23;;;;;;;40.10;26.33;;;9.00;99.90;;;;;;5006587;28;20072;-79
2023/10/19 04:42:52;;;;;;;38.47;26.48;;;9.00;99.90;;;;;;5004996;28;20041;-79
2023/10/19 04:45:19;;;;;;;40.25;26.30;;;9.10;99.90;;;;;;5005687;28;20056;-78
2023/10/19 04:47:46;;;;;;;34.90;24.88;;;9.10;99.90;;;;;;5010711;28;20076;-79
2023/10/19 04:50:13;;;;;;;38.35;25.60;;;9.10;99.90;;;;;;5003880;28;20050;-78
2023/10/19 04:52:40;;;;;;;38.88;25.70;;;9.20;99.90;;;;;;5008870;28;20045;-78
2023/10/19 04:55:07;;;;;;;35.60;25.23;;;9.20;99.90;;;;;;5001465;28;20050;-78
2023/10/19 04:57:34;;;;;;;34.58;25.08;;;9.20;99.90;;;;;;5006974;28;20195;-78
2023/10/19 05:00:01;;;;;;;35.35;26.15;;;9.20;99.90;;;;;;5018871;28;20056;-77
2023/10/19 05:02:29;;;;;;;38.92;25.73;;;9.20;99.90;;;;;;5007811;28;20415;-78
2023/10/19 05:04:56;;;;;;;37.40;25.30;;;9.30;99.90;;;;;;5010282;28;20526;-78
2023/10/19 05:07:23;;;;;;;37.40;26.42;;;9.40;99.90;;;;;;5003629;28;20046;-78
2023/10/19 05:09:49;;;;;;;44.35;26.67;;;9.30;99.90;;;;;;5009447;28;20038;-77
2023/10/19 05:12:16;;;;;;;38.92;27.10;;;9.40;99.90;;;;;;4991198;28;20030;-78
2023/10/19 05:14:43;;;;;;;42.05;25.35;;;9.40;99.90;;;;;;5011463;28;20106;-78
2023/10/19 05:17:10;;;;;;;39.35;27.33;;;9.40;99.90;;;;;;5014903;28;20045;-78
2023/10/19 05:19:39;;;;;;;31.45;24.15;;;9.40;99.90;;;;;;5012292;28;20050;-78
2023/10/19 05:22:08;;;;;;;38.63;25.02;;;9.30;99.90;;;;;;5007364;28;20155;-77
2023/10/19 05:24:35;;;;;;;33.00;24.10;;;9.40;99.90;;;;;;5014181;28;20080;-78
2023/10/19 05:27:03;;;;;;;38.28;26.38;;;9.50;99.90;;;;;;5021086;28;20040;-77
2023/10/19 05:29:33;;;;;;;35.50;24.50;;;9.50;99.90;;;;;;5022792;28;20049;-78
2023/10/19 05:32:01;;;;;;;35.40;25.75;;;9.50;99.90;;;;;;5005206;28;20042;-78
2023/10/19 05:34:29;;;;;;;35.97;23.55;;;9.50;99.90;;;;;;5003443;28;20145;-77
2023/10/19 05:36:58;;;;;;;37.88;25.60;;;9.50;99.90;;;;;;5003775;28;20045;-78
2023/10/19 05:39:27;;;;;;;34.00;23.85;;;9.50;99.90;;;;;;5008961;28;20176;-78
2023/10/19 05:41:55;;;;;;;39.90;25.38;;;9.50;99.90;;;;;;5003172;28;20045;-77
2023/10/19 05:44:24;;;;;;;37.67;25.98;;;9.60;99.90;;;;;;5006405;28;20151;-78
2023/10/19 05:46:51;;;;;;;36.75;24.35;;;9.60;99.90;;;;;;5004325;28;20100;-77
2023/10/19 05:49:18;;;;;;;35.58;23.70;;;9.60;99.90;;;;;;5001068;28;20108;-78
2023/10/19 05:51:45;;;;;;;37.70;24.10;;;9.60;99.90;;;;;;5007153;28;20056;-78
2023/10/19 05:54:12;;;;;;;31.85;23.77;;;9.60;99.90;;;;;;5001497;28;20049;-80
2023/10/19 05:56:39;;;;;;;30.95;22.13;;;9.50;99.90;;;;;;4987458;28;20677;-75
2023/10/19 05:59:06;;;;;;;36.20;24.58;;;9.60;99.90;;;;;;5002237;28;20143;-76
2023/10/19 06:01:33;;;;;;;35.05;25.05;;;9.60;99.90;;;;;;5003882;28;20108;-77
2023/10/19 06:04:00;;;;;;;31.58;24.02;;;9.70;99.90;;;;;;5007659;28;20107;-77
2023/10/19 06:06:27;;;;;;;37.10;25.13;;;9.70;99.90;;;;;;5016045;28;20057;-76
2023/10/19 06:08:54;;;;;;;33.95;23.98;;;9.70;99.90;;;;;;5006332;28;20333;-76
2023/10/19 06:11:21;;;;;;;31.67;24.55;;;9.70;99.90;;;;;;5022620;28;20554;-76
2023/10/19 06:13:48;;;;;;;38.03;26.08;;;9.70;99.90;;;;;;5028772;28;20052;-76
2023/10/19 06:16:15;;;;;;;147.63;32.65;;;9.70;99.90;;;;;;5028320;28;20105;-75
2023/10/19 06:18:43;;;;;;;41.25;24.45;;;9.70;99.90;;;;;;5029705;28;20053;-75
2023/10/19 06:21:12;;;;;;;34.38;24.02;;;9.90;99.90;;;;;;5021969;28;20080;-77
2023/10/19 06:23:39;;;;;;;36.88;25.10;;;9.90;99.90;;;;;;5011618;28;20045;-75
2023/10/19 06:26:11;;;;;;;34.90;23.48;;;9.80;99.90;;;;;;5028452;28;20038;-76
2023/10/19 06:28:40;;;;;;;41.17;24.55;;;9.70;99.90;;;;;;5037453;28;20093;-77
2023/10/19 06:31:08;;;;;;;33.83;24.80;;;9.80;99.90;;;;;;5020138;28;20026;-76
2023/10/19 06:33:35;;;;;;;34.28;24.67;;;9.80;99.90;;;;;;5026253;28;20113;-75
2023/10/19 06:36:03;;;;;;;34.15;24.88;;;9.80;99.90;;;;;;5019214;28;20069;-76
2023/10/19 06:38:31;;;;;;;38.00;24.90;;;9.80;99.90;;;;;;5006187;28;20041;-76
2023/10/19 06:40:59;;;;;;;31.60;24.00;;;9.80;99.90;;;;;;5015039;28;20034;-74
2023/10/19 06:43:28;;;;;;;37.35;25.42;;;9.90;99.90;;;;;;4991098;28;20054;-71
2023/10/19 06:46:00;;;;;;;40.00;27.65;;;9.90;99.90;;;;;;5007764;28;20292;-71
2023/10/19 06:48:27;;;;;;;35.78;25.58;;;9.90;99.90;;;;;;4995477;28;20061;-73
2023/10/19 06:50:56;;;;;;;34.55;24.80;;;10.00;99.90;;;;;;5009882;28;20566;-73
2023/10/19 06:53:23;;;;;;;35.20;26.00;;;10.10;99.90;;;;;;5007659;28;20038;-71
2023/10/19 06:55:50;;;;;;;39.60;26.50;;;10.10;99.90;;;;;;5009541;28;20078;-73
2023/10/19 06:58:19;;;;;;;37.45;25.95;;;10.20;99.90;;;;;;5009671;28;20045;-73
2023/10/19 07:00:56;;;;;;;33.20;25.23;;;10.10;99.90;;;;;;5001532;28;20085;-73
2023/10/19 07:03:23;;;;;;;35.83;25.30;;;10.10;99.90;;;;;;5005040;28;20060;-72
2023/10/19 07:05:53;;;;;;;29.60;25.45;;;10.20;99.90;;;;;;4996562;28;20049;-72
2023/10/19 07:08:21;;;;;;;33.65;25.08;;;10.20;99.90;;;;;;5008132;28;20072;-72
2023/10/19 07:10:51;;;;;;;35.80;26.02;;;10.30;99.90;;;;;;4992458;28;20046;-73
2023/10/19 07:13:18;;;;;;;31.55;24.48;;;10.30;99.90;;;;;;5005022;28;20049;-73
2023/10/19 07:15:46;;;;;;;37.47;26.20;;;10.30;99.90;;;;;;5003796;28;20073;-70
2023/10/19 07:18:16;;;;;;;33.38;25.58;;;10.30;99.90;;;;;;5013125;28;20057;-72
2023/10/19 07:20:48;;;;;;;30.58;24.38;;;10.40;99.90;;;;;;5001195;28;20037;-71
2023/10/19 07:23:26;;;;;;;34.92;24.45;;;10.40;99.90;;;;;;4984860;28;20041;-73
2023/10/19 07:25:59;;;;;;;33.17;23.17;;;10.50;99.90;;;;;;5023329;28;20504;-72
2023/10/19 07:28:27;;;;;;;32.17;23.92;;;10.50;99.90;;;;;;5001589;28;20046;-72
2023/10/19 07:30:54;;;;;;;28.15;22.73;;;10.60;99.90;;;;;;5003627;28;20071;-71
2023/10/19 07:33:21;;;;;;;26.98;22.95;;;10.70;99.90;;;;;;5008900;28;20061;-72
2023/10/19 07:35:54;;;;;;;27.15;22.00;;;10.70;99.90;;;;;;5004750;28;20061;-72
2023/10/19 07:38:23;;;;;;;27.83;22.35;;;10.60;99.90;;;;;;5002601;28;20522;-71
2023/10/19 07:40:53;;;;;;;27.88;22.65;;;10.70;99.90;;;;;;4995351;28;20125;-71
2023/10/19 07:43:21;;;;;;;33.45;22.48;;;10.70;99.90;;;;;;5001515;28;20083;-71
2023/10/19 07:45:48;;;;;;;29.65;22.85;;;10.70;99.90;;;;;;4999913;28;20120;-71
2023/10/19 07:48:16;;;;;;;32.95;22.20;;;10.70;99.90;;;;;;5011053;28;20060;-70
2023/10/19 07:50:44;;;;;;;31.80;21.55;;;10.80;99.90;;;;;;4995173;28;20819;-71
2023/10/19 07:53:11;;;;;;;29.80;21.30;;;10.70;99.90;;;;;;4984278;28;20052;-72
2023/10/19 07:55:39;;;;;;;29.30;21.08;;;10.80;99.90;;;;;;5005602;28;20107;-71
2023/10/19 07:58:06;;;;;;;33.88;23.33;;;10.90;99.90;;;;;;4998675;28;20132;-69
2023/10/19 08:00:34;;;;;;;29.75;22.02;;;11.00;99.90;;;;;;5004111;28;20125;-70
2023/10/19 08:03:02;;;;;;;27.65;19.35;;;11.10;99.90;;;;;;4996564;28;20593;-70
2023/10/19 08:05:30;;;;;;;25.08;20.00;;;11.20;99.90;;;;;;5006085;28;20038;-70
2023/10/19 08:07:59;;;;;;;22.40;19.50;;;11.30;99.90;;;;;;5002873;28;20134;-71
2023/10/19 08:10:26;;;;;;;37.20;28.77;;;11.30;99.90;;;;;;4982079;28;20392;-69
2023/10/19 08:12:55;;;;;;;25.00;20.08;;;11.40;99.90;;;;;;4989926;28;20061;-70
2023/10/19 08:15:22;;;;;;;26.45;19.98;;;11.50;99.90;;;;;;5003461;28;20064;-70
2023/10/19 08:17:50;;;;;;;22.75;19.42;;;11.50;99.90;;;;;;5011678;28;20053;-69
2023/10/19 08:20:23;;;;;;;20.35;18.08;;;11.50;99.90;;;;;;5000672;28;20113;-71
2023/10/19 08:22:52;;;;;;;26.88;19.73;;;11.50;99.90;;;;;;4997991;28;20673;-69
2023/10/19 08:25:20;;;;;;;23.02;18.63;;;11.50;99.90;;;;;;5028789;28;20049;-72
2023/10/19 08:27:51;;;;;;;23.83;18.15;;;11.50;99.90;;;;;;5032744;28;20113;-69
2023/10/19 08:30:21;;;;;;;22.30;17.85;;;11.60;99.90;;;;;;5024036;28;20334;-69
2023/10/19 08:32:52;;;;;;;22.73;17.95;;;11.60;99.90;;;;;;5021339;28;20532;-70
2023/10/19 08:35:24;;;;;;;22.27;19.00;;;11.60;99.90;;;;;;5002106;28;20050;-69
2023/10/19 08:37:57;;;;;;;25.65;17.70;;;11.70;99.90;;;;;;5008471;28;20132;-70
2023/10/19 08:40:26;;;;;;;22.35;17.35;;;11.80;99.90;;;;;;5006560;28;20046;-70
2023/10/19 08:42:55;;;;;;;23.10;17.88;;;11.80;99.90;;;;;;4996370;28;20053;-71
2023/10/19 08:45:22;;;;;;;21.85;18.38;;;11.80;99.90;;;;;;5006879;28;20054;-73
2023/10/19 08:48:01;;;;;;;22.15;17.73;;;11.80;99.90;;;;;;5001772;28;20203;-71
2023/10/19 08:50:30;;;;;;;25.33;20.27;;;11.80;99.90;;;;;;5001268;28;20726;-73
2023/10/19 08:52:59;;;;;;;25.33;18.67;;;11.90;99.90;;;;;;4994082;28;20049;-72
2023/10/19 08:55:27;;;;;;;27.45;21.98;;;11.80;99.90;;;;;;5017943;28;20073;-72
2023/10/19 08:58:16;;;;;;;22.35;18.63;;;11.80;99.90;;;;;;5010255;28;20042;-72
2023/10/19 09:00:48;;;;;;;23.67;19.42;;;11.90;99.90;;;;;;5008332;28;20064;-72
2023/10/19 09:03:19;;;;;;;20.17;18.08;;;11.90;99.90;;;;;;5001456;28;20131;-72
2023/10/19 09:05:46;;;;;;;23.40;21.00;;;11.80;99.90;;;;;;4995984;28;20503;-73
2023/10/19 09:08:16;;;;;;;26.17;23.02;;;11.90;99.90;;;;;;4996582;28;20663;-73
2023/10/19 09:10:48;;;;;;;26.23;20.35;;;11.90;99.90;;;;;;4991400;28;20041;-72
2023/10/19 09:13:18;;;;;;;25.55;21.48;;;12.00;99.90;;;;;;4997369;28;23246;-71
2023/10/19 09:15:48;;;;;;;22.27;19.88;;;12.00;99.90;;;;;;4995350;28;20045;-71
2023/10/19 09:18:17;;;;;;;23.98;20.52;;;12.00;99.90;;;;;;4999038;28;20058;-71
2023/10/19 09:20:52;;;;;;;24.17;20.48;;;12.10;99.90;;;;;;4998465;28;20045;-72
2023/10/19 09:23:21;;;;;;;21.92;19.60;;;12.00;99.90;;;;;;4995882;28;20586;-72
2023/10/19 09:25:55;;;;;;;22.85;19.67;;;12.00;99.90;;;;;;5006917;28;20105;-72
2023/10/19 09:28:24;;;;;;;;;;;12.00;99.90;;;;;;5004387;28;20559;-72
2023/10/19 09:30:52;;;;;;;20.95;18.55;;;12.00;99.90;;;;;;5022934;28;19933;-71
2023/10/19 09:33:21;;;;;;;23.00;19.08;;;12.10;99.90;;;;;;5001587;28;20087;-72
2023/10/19 09:35:50;;;;;;;23.05;18.85;;;12.10;99.90;;;;;;5014273;28;20488;-73
2023/10/19 09:38:27;;;;;;;24.60;19.88;;;12.20;99.90;;;;;;4996531;28;21657;-72
2023/10/19 09:40:55;;;;;;;22.33;19.98;;;12.20;99.90;;;;;;4989409;28;20046;-71
2023/10/19 09:43:38;;;;;;;24.45;20.02;;;12.30;99.90;;;;;;4998201;28;20100;-72
2023/10/19 09:46:11;;;;;;;19.02;17.10;;;12.40;99.90;;;;;;5000233;28;20050;-72
2023/10/19 09:48:45;;;;;;;25.15;17.40;;;12.50;99.90;;;;;;4999816;28;20808;-72
2023/10/19 09:51:13;;;;;;;18.73;16.35;;;12.50;99.90;;;;;;4996585;28;20411;-72
2023/10/19 09:53:48;;;;;;;19.15;16.98;;;12.60;99.90;;;;;;5002935;28;20503;-73
2023/10/19 09:56:22;;;;;;;22.20;15.57;;;12.70;99.90;;;;;;4994487;28;20037;-72
2023/10/19 09:58:53;;;;;;;19.98;15.75;;;12.70;99.90;;;;;;4995301;28;20042;-73
2023/10/19 10:01:23;;;;;;;20.13;17.67;;;12.80;99.90;;;;;;4993270;28;20050;-72
2023/10/19 10:03:52;;;;;;;17.95;15.70;;;13.00;99.90;;;;;;5012269;28;20034;-72
2023/10/19 10:06:30;;;;;;;17.25;15.55;;;13.10;99.90;;;;;;4986590;28;20747;-73
2023/10/19 10:09:00;;;;;;;16.65;14.32;;;13.10;99.90;;;;;;4997301;28;20045;-70
2023/10/19 10:11:28;;;;;;;16.92;15.13;;;13.10;99.90;;;;;;4995713;28;20131;-71
2023/10/19 10:13:57;;;;;;;17.13;15.35;;;13.30;99.90;;;;;;4997161;28;20046;-73
2023/10/19 10:16:32;;;;;;;20.45;18.40;;;13.30;99.90;;;;;;5001843;28;20060;-72
2023/10/19 10:19:00;;;;;;;18.08;16.30;;;13.40;99.90;;;;;;5003104;28;20053;-71
2023/10/19 10:21:29;;;;;;;16.05;14.55;;;13.60;99.90;;;;;;4993222;28;20775;-71
2023/10/19 10:23:59;;;;;;;17.83;16.15;;;13.70;99.90;;;;;;5001703;28;20077;-71
2023/10/19 10:26:36;;;;;;;19.65;17.40;;;13.80;99.90;;;;;;5002429;28;20056;-72
2023/10/19 10:29:23;;;;;;;17.33;15.63;;;13.90;99.90;;;;;;5000113;28;20054;-71
2023/10/19 10:31:51;;;;;;;15.38;14.15;;;13.80;99.90;;;;;;5004432;28;20046;-72
2023/10/19 10:34:36;;;;;;;16.88;15.15;;;13.90;99.90;;;;;;4990364;28;20054;-74
2023/10/19 10:37:07;;;;;;;14.40;13.23;;;14.00;99.90;;;;;;5013067;28;20516;-73
2023/10/19 10:39:36;;;;;;;15.25;13.95;;;14.20;99.90;;;;;;5001832;28;20042;-74
2023/10/19 10:42:07;;;;;;;13.73;12.52;;;14.30;99.90;;;;;;4981262;28;20652;-74
2023/10/19 10:44:45;;;;;;;13.80;12.57;;;14.50;99.90;;;;;;5010740;28;20042;-75
2023/10/19 10:47:16;;;;;;;15.90;14.63;;;14.60;99.90;;;;;;4999936;28;20042;-74
2023/10/19 10:49:57;;;;;;;15.77;14.48;;;14.80;99.90;;;;;;5002290;28;20091;-75
2023/10/19 10:52:33;;;;;;;17.15;15.85;;;15.00;99.90;;;;;;5001336;28;20045;-77
2023/10/19 10:55:12;;;;;;;19.00;17.40;;;15.20;99.90;;;;;;5010556;28;20711;-75
2023/10/19 10:57:43;;;;;;;17.55;16.33;;;15.40;99.90;;;;;;5014152;28;20054;-74
2023/10/19 11:00:15;;;;;;;17.88;16.67;;;15.50;99.90;;;;;;4998610;28;20552;-74
2023/10/19 11:02:45;;;;;;;21.88;20.17;;;15.40;99.90;;;;;;5014043;28;20405;-74
2023/10/19 11:05:13;;;;;;;15.68;14.68;;;15.50;99.90;;;;;;4980853;28;20108;-75
2023/10/19 11:08:01;;;;;;;17.75;16.52;;;15.50;99.90;;;;;;5010248;28;20053;-73
2023/10/19 11:10:29;;;;;;;19.77;18.48;;;15.60;99.90;;;;;;4990503;28;20125;-73
2023/10/19 11:13:38;;;;;;;19.20;18.00;;;15.70;99.90;;;;;;5004719;28;20042;-74
2023/10/19 11:16:07;;;;;;;19.67;18.17;;;16.00;99.90;;;;;;5007384;28;20038;-73
2023/10/19 11:18:37;;;;;;;20.00;18.45;;;16.00;99.90;;;;;;5006699;28;20137;-73
2023/10/19 11:21:09;;;;;;;17.20;16.17;;;15.80;99.90;;;;;;5001576;28;20117;-73
2023/10/19 11:23:41;;;;;;;20.02;18.83;;;15.80;99.90;;;;;;4989603;28;20133;-73
2023/10/19 11:26:10;;;;;;;20.70;19.45;;;15.90;99.90;;;;;;5008682;28;20050;-72
2023/10/19 11:28:50;;;;;;;18.55;17.45;;;15.80;99.90;;;;;;5012828;28;20041;-75
2023/10/19 11:31:17;;;;;;;22.13;20.60;;;15.70;99.90;;;;;;4998361;28;20497;-72
2023/10/19 11:33:46;;;;;;;22.50;20.88;;;15.80;99.90;;;;;;5007658;28;20127;-73
2023/10/19 11:36:13;;;;;;;19.90;18.60;;;15.90;99.90;;;;;;5001414;28;20138;-72
2023/10/19 11:38:47;;;;;;;19.60;18.02;;;15.90;99.90;;;;;;5029397;28;20406;-74
2023/10/19 11:41:15;;;;;;;19.35;18.08;;;16.10;99.90;;;;;;4996593;28;20109;-73
2023/10/19 11:43:47;;;;;;;18.67;17.42;;;16.20;99.90;;;;;;4999200;28;20072;-73
2023/10/19 11:46:15;;;;;;;20.30;18.88;;;16.40;99.90;;;;;;4979498;28;20652;-74
2023/10/19 11:48:42;;;;;;;22.58;21.08;;;16.50;99.90;;;;;;5000322;28;20041;-75
2023/10/19 11:51:15;;;;;;;26.58;24.38;;;16.50;99.90;;;;;;5007308;28;20095;-76
2023/10/19 11:53:45;;;;;;;23.05;21.42;;;16.50;99.90;;;;;;5018163;28;20159;-75
2023/10/19 11:56:13;;;;;;;23.17;21.42;;;16.50;99.90;;;;;;5004234;28;20055;-76
2023/10/19 11:58:41;;;;;;;27.98;25.67;;;16.60;99.90;;;;;;4999779;28;20539;-76
2023/10/19 12:01:11;;;;;;;22.08;20.38;;;16.50;99.90;;;;;;4998927;28;20646;-75
2023/10/19 12:03:43;;;;;;;21.63;20.23;;;16.50;99.90;;;;;;5002532;28;20042;-75
2023/10/19 12:06:12;;;;;;;29.98;27.40;;;16.40;99.90;;;;;;5010205;28;20125;-76
2023/10/19 12:08:42;;;;;;;30.67;28.08;;;16.60;99.90;;;;;;5006504;28;20045;-76
2023/10/19 12:11:22;;;;;;;25.95;23.60;;;16.70;99.90;;;;;;4995312;28;20582;-76
2023/10/19 12:13:49;;;;;;;32.50;29.70;;;16.80;99.90;;;;;;4993448;28;20042;-75
2023/10/19 12:16:16;;;;;;;33.38;30.05;;;16.70;99.90;;;;;;5004244;28;20045;-76
2023/10/19 12:18:44;;;;;;;21.50;19.67;;;16.70;99.90;;;;;;5005556;28;20704;-75
2023/10/19 12:21:14;;;;;;;21.25;19.75;;;16.60;99.90;;;;;;4987916;28;20120;-75
2023/10/19 12:23:43;;;;;;;21.42;19.75;;;16.40;99.90;;;;;;5007962;28;20116;-75
2023/10/19 12:26:13;;;;;;;21.38;19.88;;;16.40;99.90;;;;;;4981762;28;20072;-74
2023/10/19 12:28:41;;;;;;;22.85;20.73;;;16.30;99.90;;;;;;5026554;28;20056;-75
2023/10/19 12:31:08;;;;;;;19.65;18.02;;;16.30;99.90;;;;;;5004963;28;20044;-75
2023/10/19 12:33:41;;;;;;;21.05;19.45;;;16.20;99.90;;;;;;5008407;28;20049;-73
2023/10/19 12:38:57;;;;;;;20.17;18.80;;;16.60;99.90;;;;;;5008201;28;20041;-73
2023/10/19 12:41:24;;;;;;;19.95;18.67;;;16.50;99.90;;;;;;5017270;28;20064;-72
2023/10/19 12:43:52;;;;;;;21.02;19.58;;;16.40;99.90;;;;;;5026168;28;20033;-72
2023/10/19 12:46:19;;;;;;;20.40;18.92;;;16.30;99.90;;;;;;5010861;28;20030;-73
2023/10/19 12:48:46;;;;;;;20.23;18.73;;;16.20;99.90;;;;;;5003667;28;20049;-74
2023/10/19 12:51:14;;;;;;;20.20;18.70;;;16.30;99.90;;;;;;4988444;28;20420;-74
2023/10/19 12:53:41;;;;;;;20.55;19.00;;;16.20;99.90;;;;;;5007904;28;20084;-74
2023/10/19 12:56:10;;;;;;;19.80;18.20;;;16.30;99.90;;;;;;5004649;28;20044;-74
2023/10/19 12:58:38;;;;;;;19.25;17.85;;;16.40;99.90;;;;;;4997156;28;20057;-74
2023/10/19 13:01:05;;;;;;;18.85;17.73;;;16.40;99.90;;;;;;5012055;28;20092;-73
2023/10/19 13:03:32;;;;;;;19.13;17.90;;;16.20;99.90;;;;;;5001293;28;21229;-72
2023/10/19 13:06:04;;;;;;;19.70;18.08;;;16.20;99.90;;;;;;5004306;28;20077;-74
2023/10/19 13:08:31;;;;;;;19.98;18.50;;;16.10;99.90;;;;;;5010337;28;20141;-74
2023/10/19 13:10:58;;;;;;;22.25;20.45;;;16.20;99.90;;;;;;5004141;28;20042;-73
2023/10/19 13:13:42;;;;;;;24.05;22.10;;;16.20;99.90;;;;;;4998964;28;20139;-73